Latest Coastal Weather Observations for Port Hedland

IDW60701

Issued at 1:55 am WST Monday 21 April 2014 (issued every 10 minutes, with the page automatically refreshed every 10 minutes)

About coastal observations | Map of coastal stations | Coastal observations for WA | Marine services | Other Formats
Station Details ID: 004032 Name: PORT HEDLAND AIRPORT Lat: -20.37 Lon: 118.63 Height: 6.4 m
Data from the previous 72 hours. | See also: Recent months at Port Hedland
Date/Time
WST
Temp

°C
Wind Pressure Rain
since 9am
mm
Weather Cloud Vis
km
Sea
Height
m
Swell
Dir
 
Speed
knots
Gust
knots
hPa Trend Height
m
Period
s
Dir
21/01:30am 21.9 CALM 0 0 1011.1 - 0.0 - - 10 - - - -
21/01:00am 21.6 WSW 3 4 1010.9 - 0.0 - - 10 - - - -
21/12:30am 22.3 WSW 4 5 1010.9 - 0.0 - - 10 - - - -
21/12:00am 22.2 SW 6 6 1011.1 - 0.0 - - 10 - - - -
 
Date/Time
WST
Temp

°C
Wind Pressure Rain
since 9am
mm
Weather Cloud Vis
km
Sea
Height
m
Swell
Dir
 
Speed
knots
Gust
knots
hPa Trend Height
m
Period
s
Dir
20/11:30pm 22.7 SSW 5 5 1011.1 - 0.0 - - 10 - - - -
20/11:00pm 23.3 W 3 5 1011.3 - 0.0 - - 10 - - - -
20/10:30pm 23.6 CALM 0 0 1011.3 - 0.0 - - 10 - - - -
20/10:00pm 24.1 CALM 0 0 1011.4 - 0.0 - - 10 - - - -
20/09:30pm 24.8 CALM 0 0 1011.5 - 0.0 - - 10 - - - -
20/09:00pm 25.1 CALM 0 0 1011.4 - 0.0 - - 10 - - - -
20/08:30pm 25.0 CALM 0 0 1011.3 - 0.0 - - 10 - - - -
20/08:00pm 24.9 NW 5 6 1011.0 - 0.0 - - 10 - - - -
20/07:30pm 25.7 NW 5 6 1010.7 - 0.0 - - 10 - - - -
20/07:00pm 26.1 NW 5 6 1010.5 - 0.0 - - 10 - - - -
20/06:30pm 26.7 NW 6 7 1010.2 - 0.0 - - 10 - - - -
20/06:00pm 28.3 NW 7 9 1009.9 - 0.0 - - 10 - - - -
20/05:30pm 30.1 NW 9 11 1009.6 - 0.0 - - 10 - - - -
20/05:00pm 30.9 NW 11 14 1009.4 - 0.0 - - 10 - - - -
20/04:30pm 32.4 NW 13 16 1009.3 - 0.0 - - 10 - - - -
20/04:00pm 33.5 NW 13 15 1009.1 - 0.0 - - 10 - - - -
20/03:30pm 34.5 NW 13 15 1008.9 - 0.0 - - 10 - - - -
20/03:00pm 34.7 NW 13 16 1008.8 - 0.0 - - 10 - - - -
20/02:30pm 34.9 NNW 13 16 1009.1 - 0.0 - - 10 - - - -
20/02:00pm 36.1 N 12 15 1009.2 - 0.0 - - 10 - - - -
20/01:30pm 35.4 N 12 15 1009.3 - 0.0 - - 10 - - - -
20/01:00pm 36.8 NNW 11 15 1009.8 - 0.0 - - 10 - - - -
20/12:30pm 37.0 NNW 11 14 1010.1 - 0.0 - - 10 - - - -
20/12:00pm 36.1 N 9 12 1010.4 - 0.0 - - 10 - - - -
20/11:30am 36.3 NNE 8 11 1011.1 - 0.0 - - 10 - - - -
20/11:00am 36.0 ESE 4 8 1011.4 - 0.0 - - 10 - - - -
20/10:30am 35.6 S 5 9 1011.9 - 0.0 - - 10 - - - -
20/10:00am 34.9 S 6 10 1012.2 - 0.0 - - 10 - - - -
20/09:30am 34.1 S 8 11 1012.3 - 0.0 - - 10 - - - -
20/09:00am 33.3 S 8 12 1012.2 - 0.0 - - 10 - - - -
20/08:30am 31.0 S 8 11 1012.4 - 0.0 - - 10 - - - -
20/08:00am 28.7 SSE 7 10 1012.4 - 0.0 - - 10 - - - -
20/07:30am 24.8 SSE 5 7 1012.3 - 0.0 - - 10 - - - -
20/07:00am 21.9 S 6 7 1012.1 - 0.0 - - 10 - - - -
20/06:30am 20.7 S 5 6 1011.9 - 0.0 - - 10 - - - -
20/06:00am 20.8 S 6 7 1011.5 - 0.0 - - 10 - - - -
20/05:30am 20.8 S 6 8 1011.5 - 0.0 - - 10 - - - -
20/05:00am 20.8 S 6 7 1011.3 - 0.0 - - 10 - - - -
20/04:30am 20.9 S 6 7 1011.2 - 0.0 - - 10 - - - -
20/04:00am 21.2 S 6 7 1011.0 - 0.0 - - 10 - - - -
20/03:30am 21.5 S 6 7 1011.0 - 0.0 - - 10 - - - -
20/03:00am 21.9 S 6 8 1011.0 - 0.0 - - 10 - - - -
20/02:30am 21.9 S 7 9 1011.3 - 0.0 - - 10 - - - -
20/02:00am 21.6 S 7 9 1011.3 - 0.0 - - 10 - - - -
20/01:30am 21.4 S 6 7 1011.4 - 0.0 - - 10 - - - -
20/01:00am 21.1 SE 5 7 1011.5 - 0.0 - - 10 - - - -
20/12:30am 21.9 SE 3 4 1011.5 - 0.0 - - 10 - - - -
20/12:00am 22.7 S 2 5 1011.7 - 0.0 - - 10 - - - -
 
Date/Time
WST
Temp

°C
Wind Pressure Rain
since 9am
mm
Weather Cloud Vis
km
Sea
Height
m
Swell
Dir
 
Speed
knots
Gust
knots
hPa Trend Height
m
Period
s
Dir
19/11:30pm 22.1 SSW 7 8 1011.8 - 0.0 - - 10 - - - -
19/11:00pm 22.9 SSW 6 7 1012.1 - 0.0 - - 10 - - - -
19/10:30pm 23.3 W 4 5 1012.2 - 0.0 - - 10 - - - -
19/10:00pm 23.7 W 4 5 1012.3 - 0.0 - - 10 - - - -
19/09:30pm 24.3 SW 5 6 1012.5 - 0.0 - - 10 - - - -
19/09:00pm 24.7 W 3 3 1012.3 - 0.0 - - 10 - - - -
19/08:30pm 25.7 W 5 6 1012.2 - 0.0 - - 10 - - - -
19/08:00pm 26.9 WNW 6 8 1011.9 - 0.0 - - 10 - - - -
19/07:30pm 25.6 WNW 7 10 1011.6 - 0.0 - - 10 - - - -
19/07:00pm 26.0 WNW 7 7 1011.4 - 0.0 - - 10 - - - -
19/06:30pm 26.9 NW 6 8 1011.3 - 0.0 - - 10 - - - -
19/06:00pm 28.1 NW 6 7 1010.8 - 0.0 - - 10 - - - -
19/05:30pm 29.5 NNW 7 9 1010.8 - 0.0 - - 10 - - - -
19/05:00pm 30.3 N 10 12 1010.4 - 0.0 - - 10 - - - -
19/04:30pm 31.5 N 11 14 1010.4 - 0.0 - - 10 - - - -
19/04:00pm 31.9 NNE 14 18 1009.9 - 0.0 - - 10 - - - -
19/03:30pm 35.6 N 10 14 1009.8 - 0.0 - - 10 - - - -
19/03:00pm 36.2 NNW 11 14 1009.6 - 0.0 - - 10 - - - -
19/02:30pm 36.9 NNW 10 15 1009.8 - 0.0 - - 10 - - - -
19/02:00pm 36.0 N 9 11 1010.2 - 0.0 - - 10 - - - -
19/01:30pm 35.7 N 10 13 1010.6 - 0.0 - - 10 - - - -
19/01:00pm 36.9 NNE 10 13 1011.1 - 0.0 - - 10 - - - -
19/12:30pm 35.9 NNE 10 14 1011.6 - 0.0 - - 10 - - - -
19/12:00pm 37.2 E 5 8 1012.0 - 0.0 - - 10 - - - -
19/11:30am 36.5 ESE 12 16 1012.6 - 0.0 - - 10 - - - -
19/11:00am 35.8 SE 7 11 1013.0 - 0.0 - - 10 - - - -
19/10:30am 35.8 ESE 10 15 1013.5 - 0.0 - - 10 - - - -
19/10:00am 35.2 ESE 9 12 1013.9 - 0.0 - - 10 - - - -
19/09:30am 34.5 ESE 10 15 1014.2 - 0.0 - - 10 - - - -
19/09:00am 33.3 SSE 10 13 1014.3 - 0.0 - - 10 - - - -
19/08:30am 31.7 SSE 9 13 1014.5 - 0.0 - - 10 - - - -
19/08:00am 29.0 SSE 9 11 1014.5 - 0.0 - - 10 - - - -
19/07:30am 25.0 SSE 7 9 1014.4 - 0.0 - - 10 - - - -
19/07:00am 22.0 S 6 7 1014.1 - 0.0 - - 10 - - - -
19/06:30am 21.3 S 7 9 1013.9 - 0.0 - - 10 - - - -
19/06:00am 20.8 S 7 8 1013.6 - 0.0 - - 10 - - - -
19/05:30am 21.0 SSE 8 9 1013.6 - 0.0 - - 10 - - - -
19/05:00am 20.9 S 7 8 1013.4 - 0.0 - - 10 - - - -
19/04:30am 20.8 S 7 8 1013.3 - 0.0 - - 10 - - - -
19/04:00am 21.2 S 7 8 1013.3 - 0.0 - - 10 - - - -
19/03:30am 21.3 S 7 8 1013.5 - 0.0 - - 10 - - - -
19/03:00am 21.2 S 6 8 1013.6 - 0.0 - - 10 - - - -
19/02:30am 21.4 S 6 8 1013.8 - 0.0 - - 10 - - - -
19/02:00am 21.6 S 6 8 1013.7 - 0.0 - - 10 - - - -
19/01:30am 21.9 S 6 8 1013.8 - 0.0 - - 10 - - - -
19/01:00am 21.5 S 6 7 1014.0 - 0.0 - - 10 - - - -
19/12:30am 21.3 S 6 8 1014.2 - 0.0 - - 10 - - - -
19/12:00am 21.7 S 6 8 1014.4 - 0.0 - - 10 - - - -
 
Date/Time
WST
Temp

°C
Wind Pressure Rain
since 9am
mm
Weather Cloud Vis
km
Sea
Height
m
Swell
Dir
 
Speed
knots
Gust
knots
hPa Trend Height
m
Period
s
Dir
18/11:30pm 22.0 S 6 7 1014.6 - 0.0 - - 10 - - - -
18/11:00pm 23.3 S 7 9 1014.8 - 0.0 - - 10 - - - -
18/10:30pm 23.2 S 7 9 1014.8 - 0.0 - - 10 - - - -
18/10:00pm 23.8 S 5 7 1014.9 - 0.0 - - 10 - - - -
18/09:30pm 24.0 SW 5 6 1014.9 - 0.0 - - 10 - - - -
18/09:00pm 24.7 WNW 3 4 1014.6 - 0.0 - - 10 - - - -
18/08:30pm 24.9 WNW 4 4 1014.7 - 0.0 - - 10 - - - -
18/08:00pm 25.1 WNW 6 7 1014.4 - 0.0 - - 10 - - - -
18/07:30pm 25.7 NW 4 5 1013.9 - 0.0 - - 10 - - - -
18/07:00pm 26.0 NW 4 5 1013.5 - 0.0 - - 10 - - - -
18/06:30pm 26.5 NNW 5 6 1013.2 - 0.0 - - 10 - - - -
18/06:00pm 27.5 NW 5 6 1012.8 - 0.0 - - 10 - - - -
18/05:30pm 29.1 NW 6 7 1012.5 - 0.0 - - 10 - - - -
18/05:00pm 30.7 N 12 15 1012.1 - 0.0 - - 10 - - - -
18/04:30pm 31.4 N 13 19 1011.9 - 0.0 - - 10 - - - -
18/04:00pm 31.8 N 14 19 1011.7 - 0.0 - - 10 - - - -
18/03:30pm 32.1 NNE 14 19 1011.6 - 0.0 - - 10 - - - -
18/03:00pm 32.2 N 16 22 1011.6 - 0.0 - - 10 - - - -
18/02:30pm 33.1 NNE 17 21 1011.8 - 0.0 - - 10 - - - -
18/02:00pm 33.1 NNE 16 21 1011.9 - 0.0 - - 10 - - - -
18/01:30pm 33.6 N 13 17 1012.1 - 0.0 - - 10 - - - -
18/01:00pm 33.2 N 16 19 1012.3 - 0.0 - - 10 - - - -
18/12:30pm 35.6 NNE 15 19 1012.6 - 0.0 - - 10 - - - -
18/12:00pm 36.1 ENE 13 21 1012.9 - 0.0 - - 10 - - - -
18/11:30am 36.5 ENE 15 20 1013.5 - 0.0 - - 10 - - - -
18/11:00am 35.7 E 15 19 1013.9 - 0.0 - - 10 - - - -
18/10:30am 35.1 E 15 20 1014.3 - 0.0 - - 10 - - - -
18/10:00am 34.0 E 15 20 1014.6 - 0.0 - - 10 - - - -
18/09:30am 33.3 E 16 21 1014.8 - 0.0 - - 10 - - - -
18/09:00am 31.8 E 15 19 1014.8 - 0.0 - - 10 - - - -
18/08:30am 30.5 ESE 13 17 1014.9 - 0.0 - - 10 - - - -
18/08:00am 27.7 ESE 6 8 1014.8 - 0.0 - - 10 - - - -
18/07:30am 24.1 SSE 5 7 1014.8 - 0.0 - - 10 - - - -
18/07:00am 21.9 SE 4 7 1014.6 - 0.0 - - 10 - - - -
18/06:30am 20.1 SSE 4 6 1014.4 - 0.0 - - 10 - - - -
18/06:00am 19.8 SSE 5 6 1014.1 - 0.0 - - 10 - - - -
18/05:30am 20.0 SSE 7 8 1014.1 - 0.0 - - 10 - - - -
18/05:00am 20.2 SSE 7 8 1014.1 - 0.0 - - 10 - - - -
18/04:30am 20.8 S 7 8 1014.0 - 0.0 - - 10 - - - -
18/04:00am 20.8 S 7 9 1014.0 - 0.0 - - 10 - - - -
18/03:30am 20.7 S 6 8 1014.1 - 0.0 - - 10 - - - -
18/03:00am 20.8 S 7 8 1013.8 - 0.0 - - 10 - - - -
18/02:30am 20.6 S 7 9 1014.0 - 0.0 - - 10 - - - -
18/02:00am 21.1 S 8 10 1014.0 - 0.0 - - 10 - - - -

Other Formats:

Comma delimited format used in spreadsheet applications
http://www.bom.gov.au/fwo/IDW60701/IDW60701.94312.axf

JavaScript Object Notation format (JSON) in row-major order
http://www.bom.gov.au/fwo/IDW60701/IDW60701.94312.json